sensor_id;sensor_type;location;lat;lon;timestamp;P1;durP1;ratioP1;P2;durP2;ratioP2
8488;SDS011;4281;45.772;12.852;2023-05-20T00:01:44;5.83;;;5.33;;
8488;SDS011;4281;45.772;12.852;2023-05-20T00:04:13;5.63;;;5.13;;
8488;SDS011;4281;45.772;12.852;2023-05-20T00:06:41;6.03;;;5.30;;
8488;SDS011;4281;45.772;12.852;2023-05-20T00:09:09;5.83;;;5.33;;
8488;SDS011;4281;45.772;12.852;2023-05-20T00:11:37;5.90;;;5.40;;
8488;SDS011;4281;45.772;12.852;2023-05-20T00:14:05;6.13;;;5.13;;
8488;SDS011;4281;45.772;12.852;2023-05-20T00:16:33;6.90;;;5.73;;
8488;SDS011;4281;45.772;12.852;2023-05-20T00:19:02;5.97;;;5.47;;
8488;SDS011;4281;45.772;12.852;2023-05-20T00:21:31;5.60;;;5.10;;
8488;SDS011;4281;45.772;12.852;2023-05-20T00:24:00;5.90;;;5.37;;
8488;SDS011;4281;45.772;12.852;2023-05-20T00:26:28;5.40;;;5.00;;
8488;SDS011;4281;45.772;12.852;2023-05-20T00:28:56;5.63;;;5.13;;
8488;SDS011;4281;45.772;12.852;2023-05-20T00:31:24;6.07;;;5.57;;
8488;SDS011;4281;45.772;12.852;2023-05-20T00:33:52;6.17;;;5.67;;
8488;SDS011;4281;45.772;12.852;2023-05-20T00:36:19;6.40;;;5.90;;
8488;SDS011;4281;45.772;12.852;2023-05-20T00:38:49;5.90;;;5.40;;
8488;SDS011;4281;45.772;12.852;2023-05-20T00:41:17;6.40;;;5.87;;
8488;SDS011;4281;45.772;12.852;2023-05-20T00:43:44;6.03;;;5.50;;
8488;SDS011;4281;45.772;12.852;2023-05-20T00:46:12;5.80;;;5.30;;
8488;SDS011;4281;45.772;12.852;2023-05-20T00:48:41;5.80;;;5.30;;
8488;SDS011;4281;45.772;12.852;2023-05-20T00:51:10;6.07;;;5.57;;
8488;SDS011;4281;45.772;12.852;2023-05-20T00:53:38;6.37;;;5.87;;
8488;SDS011;4281;45.772;12.852;2023-05-20T00:56:08;6.37;;;5.77;;
8488;SDS011;4281;45.772;12.852;2023-05-20T00:58:36;5.80;;;5.30;;
8488;SDS011;4281;45.772;12.852;2023-05-20T01:01:04;5.80;;;5.30;;
8488;SDS011;4281;45.772;12.852;2023-05-20T01:03:32;5.57;;;5.07;;
8488;SDS011;4281;45.772;12.852;2023-05-20T01:06:01;5.90;;;5.30;;
8488;SDS011;4281;45.772;12.852;2023-05-20T01:08:28;6.20;;;5.70;;
8488;SDS011;4281;45.772;12.852;2023-05-20T01:10:59;6.30;;;5.70;;
8488;SDS011;4281;45.772;12.852;2023-05-20T01:13:34;5.47;;;5.00;;
8488;SDS011;4281;45.772;12.852;2023-05-20T01:16:05;6.40;;;5.83;;
8488;SDS011;4281;45.772;12.852;2023-05-20T01:18:35;6.13;;;5.63;;
8488;SDS011;4281;45.772;12.852;2023-05-20T01:21:06;6.57;;;6.00;;
8488;SDS011;4281;45.772;12.852;2023-05-20T01:23:38;6.33;;;5.83;;
8488;SDS011;4281;45.772;12.852;2023-05-20T01:26:06;6.13;;;5.63;;
8488;SDS011;4281;45.772;12.852;2023-05-20T01:28:35;6.30;;;5.70;;
8488;SDS011;4281;45.772;12.852;2023-05-20T01:31:04;6.53;;;5.93;;
8488;SDS011;4281;45.772;12.852;2023-05-20T01:33:35;6.07;;;5.57;;
8488;SDS011;4281;45.772;12.852;2023-05-20T01:36:04;6.57;;;6.07;;
8488;SDS011;4281;45.772;12.852;2023-05-20T01:38:32;6.03;;;5.53;;
8488;SDS011;4281;45.772;12.852;2023-05-20T01:41:03;6.20;;;5.70;;
8488;SDS011;4281;45.772;12.852;2023-05-20T01:43:31;6.47;;;5.97;;
8488;SDS011;4281;45.772;12.852;2023-05-20T01:45:59;6.33;;;5.83;;
8488;SDS011;4281;45.772;12.852;2023-05-20T01:48:28;6.80;;;6.23;;
8488;SDS011;4281;45.772;12.852;2023-05-20T01:50:56;6.07;;;5.57;;
8488;SDS011;4281;45.772;12.852;2023-05-20T01:53:24;6.50;;;6.00;;
8488;SDS011;4281;45.772;12.852;2023-05-20T01:55:52;6.47;;;5.90;;
8488;SDS011;4281;45.772;12.852;2023-05-20T01:58:21;6.27;;;5.77;;
8488;SDS011;4281;45.772;12.852;2023-05-20T02:00:49;6.77;;;6.17;;
8488;SDS011;4281;45.772;12.852;2023-05-20T02:03:17;6.53;;;5.93;;
8488;SDS011;4281;45.772;12.852;2023-05-20T02:05:45;6.30;;;5.77;;
8488;SDS011;4281;45.772;12.852;2023-05-20T02:08:13;6.40;;;5.90;;
8488;SDS011;4281;45.772;12.852;2023-05-20T02:10:41;6.63;;;5.93;;
8488;SDS011;4281;45.772;12.852;2023-05-20T02:13:09;6.30;;;5.80;;
8488;SDS011;4281;45.772;12.852;2023-05-20T02:15:41;6.37;;;5.77;;
8488;SDS011;4281;45.772;12.852;2023-05-20T02:18:09;5.90;;;5.40;;
8488;SDS011;4281;45.772;12.852;2023-05-20T02:20:38;5.57;;;5.17;;
8488;SDS011;4281;45.772;12.852;2023-05-20T02:23:06;5.93;;;5.47;;
8488;SDS011;4281;45.772;12.852;2023-05-20T02:25:34;6.47;;;5.87;;
8488;SDS011;4281;45.772;12.852;2023-05-20T02:28:02;5.73;;;5.33;;
8488;SDS011;4281;45.772;12.852;2023-05-20T02:30:31;5.33;;;4.83;;
8488;SDS011;4281;45.772;12.852;2023-05-20T02:33:00;5.77;;;5.37;;
8488;SDS011;4281;45.772;12.852;2023-05-20T02:35:28;5.90;;;5.40;;
8488;SDS011;4281;45.772;12.852;2023-05-20T02:37:56;5.70;;;5.20;;
8488;SDS011;4281;45.772;12.852;2023-05-20T02:40:24;5.83;;;5.37;;
8488;SDS011;4281;45.772;12.852;2023-05-20T02:42:52;6.03;;;5.53;;
8488;SDS011;4281;45.772;12.852;2023-05-20T02:45:20;5.93;;;5.33;;
8488;SDS011;4281;45.772;12.852;2023-05-20T02:47:47;5.50;;;5.10;;
8488;SDS011;4281;45.772;12.852;2023-05-20T02:50:17;5.37;;;4.97;;
8488;SDS011;4281;45.772;12.852;2023-05-20T02:52:45;5.93;;;5.43;;
8488;SDS011;4281;45.772;12.852;2023-05-20T02:55:13;5.53;;;4.93;;
8488;SDS011;4281;45.772;12.852;2023-05-20T02:57:41;5.43;;;5.03;;
8488;SDS011;4281;45.772;12.852;2023-05-20T03:00:09;5.07;;;4.67;;
8488;SDS011;4281;45.772;12.852;2023-05-20T03:02:38;4.43;;;4.13;;
8488;SDS011;4281;45.772;12.852;2023-05-20T03:05:06;5.00;;;4.60;;
8488;SDS011;4281;45.772;12.852;2023-05-20T03:07:36;4.73;;;4.33;;
8488;SDS011;4281;45.772;12.852;2023-05-20T03:10:04;4.40;;;4.00;;
8488;SDS011;4281;45.772;12.852;2023-05-20T03:12:33;4.63;;;4.27;;
8488;SDS011;4281;45.772;12.852;2023-05-20T03:15:01;4.33;;;4.03;;
8488;SDS011;4281;45.772;12.852;2023-05-20T03:17:29;5.00;;;4.60;;
8488;SDS011;4281;45.772;12.852;2023-05-20T03:19:57;4.40;;;4.00;;
8488;SDS011;4281;45.772;12.852;2023-05-20T03:22:26;3.87;;;3.57;;
8488;SDS011;4281;45.772;12.852;2023-05-20T03:24:56;4.30;;;3.90;;
8488;SDS011;4281;45.772;12.852;2023-05-20T03:27:25;4.17;;;3.77;;
8488;SDS011;4281;45.772;12.852;2023-05-20T03:29:53;4.20;;;3.90;;
8488;SDS011;4281;45.772;12.852;2023-05-20T03:32:21;4.27;;;3.93;;
8488;SDS011;4281;45.772;12.852;2023-05-20T03:34:49;4.10;;;3.80;;
8488;SDS011;4281;45.772;12.852;2023-05-20T03:37:17;3.80;;;3.50;;
8488;SDS011;4281;45.772;12.852;2023-05-20T03:39:45;3.97;;;3.67;;
8488;SDS011;4281;45.772;12.852;2023-05-20T03:42:14;4.07;;;3.77;;
8488;SDS011;4281;45.772;12.852;2023-05-20T03:44:42;3.80;;;3.50;;
8488;SDS011;4281;45.772;12.852;2023-05-20T03:47:10;3.93;;;3.57;;
8488;SDS011;4281;45.772;12.852;2023-05-20T03:49:38;4.27;;;3.90;;
8488;SDS011;4281;45.772;12.852;2023-05-20T03:52:06;3.93;;;3.63;;
8488;SDS011;4281;45.772;12.852;2023-05-20T03:54:34;3.87;;;3.57;;
8488;SDS011;4281;45.772;12.852;2023-05-20T03:57:02;4.03;;;3.73;;
8488;SDS011;4281;45.772;12.852;2023-05-20T03:59:32;4.30;;;4.00;;
8488;SDS011;4281;45.772;12.852;2023-05-20T04:02:00;3.90;;;3.60;;
8488;SDS011;4281;45.772;12.852;2023-05-20T04:04:28;3.90;;;3.60;;
8488;SDS011;4281;45.772;12.852;2023-05-20T04:06:56;4.43;;;4.00;;
8488;SDS011;4281;45.772;12.852;2023-05-20T04:09:25;4.20;;;3.80;;
8488;SDS011;4281;45.772;12.852;2023-05-20T04:11:53;4.37;;;3.97;;
8488;SDS011;4281;45.772;12.852;2023-05-20T04:14:22;4.50;;;4.10;;
8488;SDS011;4281;45.772;12.852;2023-05-20T04:16:51;4.50;;;4.10;;
8488;SDS011;4281;45.772;12.852;2023-05-20T04:19:20;4.20;;;3.90;;
8488;SDS011;4281;45.772;12.852;2023-05-20T04:21:49;4.63;;;4.23;;
8488;SDS011;4281;45.772;12.852;2023-05-20T04:24:17;4.23;;;3.93;;
8488;SDS011;4281;45.772;12.852;2023-05-20T04:26:45;4.50;;;4.10;;
8488;SDS011;4281;45.772;12.852;2023-05-20T04:29:13;4.50;;;4.10;;
8488;SDS011;4281;45.772;12.852;2023-05-20T04:31:41;4.97;;;4.40;;
8488;SDS011;4281;45.772;12.852;2023-05-20T04:34:12;4.63;;;4.13;;
8488;SDS011;4281;45.772;12.852;2023-05-20T04:36:40;4.50;;;4.20;;
8488;SDS011;4281;45.772;12.852;2023-05-20T04:39:08;4.57;;;4.17;;
8488;SDS011;4281;45.772;12.852;2023-05-20T04:41:36;4.47;;;4.07;;
8488;SDS011;4281;45.772;12.852;2023-05-20T04:44:05;5.50;;;5.00;;
8488;SDS011;4281;45.772;12.852;2023-05-20T04:46:33;5.97;;;4.70;;
8488;SDS011;4281;45.772;12.852;2023-05-20T04:49:01;4.50;;;4.10;;
8488;SDS011;4281;45.772;12.852;2023-05-20T04:51:31;5.20;;;4.80;;
8488;SDS011;4281;45.772;12.852;2023-05-20T04:53:59;4.93;;;4.47;;
8488;SDS011;4281;45.772;12.852;2023-05-20T04:56:27;5.13;;;4.73;;
8488;SDS011;4281;45.772;12.852;2023-05-20T04:58:55;5.23;;;4.73;;
8488;SDS011;4281;45.772;12.852;2023-05-20T05:01:24;4.93;;;4.53;;
8488;SDS011;4281;45.772;12.852;2023-05-20T05:03:52;4.60;;;4.30;;
8488;SDS011;4281;45.772;12.852;2023-05-20T05:06:20;4.70;;;4.30;;
8488;SDS011;4281;45.772;12.852;2023-05-20T05:08:49;5.07;;;4.67;;
8488;SDS011;4281;45.772;12.852;2023-05-20T05:11:17;5.70;;;5.20;;
8488;SDS011;4281;45.772;12.852;2023-05-20T05:13:45;5.67;;;5.17;;
8488;SDS011;4281;45.772;12.852;2023-05-20T05:16:12;5.80;;;5.20;;
8488;SDS011;4281;45.772;12.852;2023-05-20T05:18:40;5.27;;;4.87;;
8488;SDS011;4281;45.772;12.852;2023-05-20T05:21:08;4.90;;;4.50;;
8488;SDS011;4281;45.772;12.852;2023-05-20T05:23:36;5.10;;;4.63;;
8488;SDS011;4281;45.772;12.852;2023-05-20T05:26:06;5.63;;;5.17;;
8488;SDS011;4281;45.772;12.852;2023-05-20T05:28:33;5.40;;;5.00;;
8488;SDS011;4281;45.772;12.852;2023-05-20T05:31:01;5.73;;;5.13;;
8488;SDS011;4281;45.772;12.852;2023-05-20T05:33:29;5.63;;;5.13;;
8488;SDS011;4281;45.772;12.852;2023-05-20T05:35:57;5.00;;;4.60;;
8488;SDS011;4281;45.772;12.852;2023-05-20T05:38:27;5.07;;;4.67;;
8488;SDS011;4281;45.772;12.852;2023-05-20T05:40:55;5.80;;;5.30;;
8488;SDS011;4281;45.772;12.852;2023-05-20T05:43:24;5.43;;;4.93;;
8488;SDS011;4281;45.772;12.852;2023-05-20T05:45:52;5.33;;;4.93;;
8488;SDS011;4281;45.772;12.852;2023-05-20T05:48:20;4.90;;;4.50;;
8488;SDS011;4281;45.772;12.852;2023-05-20T05:50:48;5.23;;;4.60;;
8488;SDS011;4281;45.772;12.852;2023-05-20T05:53:16;5.03;;;4.63;;
8488;SDS011;4281;45.772;12.852;2023-05-20T05:55:44;4.73;;;4.33;;
8488;SDS011;4281;45.772;12.852;2023-05-20T05:58:12;5.73;;;5.10;;
8488;SDS011;4281;45.772;12.852;2023-05-20T06:00:42;4.90;;;4.50;;
8488;SDS011;4281;45.772;12.852;2023-05-20T06:03:10;5.63;;;4.67;;
8488;SDS011;4281;45.772;12.852;2023-05-20T06:05:38;6.03;;;5.00;;
8488;SDS011;4281;45.772;12.852;2023-05-20T06:08:06;5.93;;;5.30;;
8488;SDS011;4281;45.772;12.852;2023-05-20T06:10:34;5.10;;;4.70;;
8488;SDS011;4281;45.772;12.852;2023-05-20T06:13:02;5.33;;;4.90;;
8488;SDS011;4281;45.772;12.852;2023-05-20T06:15:29;5.60;;;5.10;;
8488;SDS011;4281;45.772;12.852;2023-05-20T06:17:59;5.73;;;5.17;;
8488;SDS011;4281;45.772;12.852;2023-05-20T06:20:27;6.10;;;5.60;;
8488;SDS011;4281;45.772;12.852;2023-05-20T06:22:55;6.47;;;5.87;;
8488;SDS011;4281;45.772;12.852;2023-05-20T06:25:23;5.97;;;5.47;;
8488;SDS011;4281;45.772;12.852;2023-05-20T06:27:51;6.10;;;5.60;;
8488;SDS011;4281;45.772;12.852;2023-05-20T06:30:19;6.30;;;5.80;;
8488;SDS011;4281;45.772;12.852;2023-05-20T06:32:47;6.27;;;5.77;;
8488;SDS011;4281;45.772;12.852;2023-05-20T06:35:16;6.13;;;5.63;;
8488;SDS011;4281;45.772;12.852;2023-05-20T06:37:44;6.80;;;6.17;;
8488;SDS011;4281;45.772;12.852;2023-05-20T06:40:12;6.17;;;5.77;;
8488;SDS011;4281;45.772;12.852;2023-05-20T06:42:40;6.77;;;6.20;;
8488;SDS011;4281;45.772;12.852;2023-05-20T06:45:09;6.30;;;5.70;;
8488;SDS011;4281;45.772;12.852;2023-05-20T06:47:39;6.30;;;5.80;;
8488;SDS011;4281;45.772;12.852;2023-05-20T06:50:07;6.80;;;6.20;;
8488;SDS011;4281;45.772;12.852;2023-05-20T06:52:37;6.80;;;6.20;;
8488;SDS011;4281;45.772;12.852;2023-05-20T06:55:05;6.67;;;6.17;;
8488;SDS011;4281;45.772;12.852;2023-05-20T06:57:33;7.80;;;7.00;;
8488;SDS011;4281;45.772;12.852;2023-05-20T07:00:01;6.70;;;6.20;;
8488;SDS011;4281;45.772;12.852;2023-05-20T07:02:31;6.90;;;6.37;;
8488;SDS011;4281;45.772;12.852;2023-05-20T07:05:00;6.53;;;5.93;;
8488;SDS011;4281;45.772;12.852;2023-05-20T07:07:27;6.73;;;6.10;;
8488;SDS011;4281;45.772;12.852;2023-05-20T07:09:57;7.40;;;6.80;;
8488;SDS011;4281;45.772;12.852;2023-05-20T07:12:25;7.37;;;6.77;;
8488;SDS011;4281;45.772;12.852;2023-05-20T07:14:53;7.00;;;6.37;;
8488;SDS011;4281;45.772;12.852;2023-05-20T07:17:21;7.57;;;6.97;;
8488;SDS011;4281;45.772;12.852;2023-05-20T07:19:49;7.33;;;6.73;;
8488;SDS011;4281;45.772;12.852;2023-05-20T07:22:18;7.10;;;6.40;;
8488;SDS011;4281;45.772;12.852;2023-05-20T07:24:46;7.30;;;6.70;;
8488;SDS011;4281;45.772;12.852;2023-05-20T07:27:15;7.60;;;7.00;;
8488;SDS011;4281;45.772;12.852;2023-05-20T07:29:43;7.77;;;7.07;;
8488;SDS011;4281;45.772;12.852;2023-05-20T07:32:11;7.53;;;6.73;;
8488;SDS011;4281;45.772;12.852;2023-05-20T07:34:38;8.13;;;7.40;;
8488;SDS011;4281;45.772;12.852;2023-05-20T07:37:06;7.97;;;7.27;;
8488;SDS011;4281;45.772;12.852;2023-05-20T07:39:38;7.90;;;7.30;;
8488;SDS011;4281;45.772;12.852;2023-05-20T07:42:05;8.33;;;7.63;;
8488;SDS011;4281;45.772;12.852;2023-05-20T07:44:35;7.87;;;7.13;;
8488;SDS011;4281;45.772;12.852;2023-05-20T07:47:03;7.60;;;7.00;;
8488;SDS011;4281;45.772;12.852;2023-05-20T07:49:31;8.00;;;7.30;;
8488;SDS011;4281;45.772;12.852;2023-05-20T07:51:59;8.40;;;7.60;;
8488;SDS011;4281;45.772;12.852;2023-05-20T07:54:28;7.80;;;7.10;;
8488;SDS011;4281;45.772;12.852;2023-05-20T07:56:56;8.63;;;7.93;;
8488;SDS011;4281;45.772;12.852;2023-05-20T07:59:25;9.83;;;8.00;;
8488;SDS011;4281;45.772;12.852;2023-05-20T08:01:55;8.77;;;7.97;;
8488;SDS011;4281;45.772;12.852;2023-05-20T08:04:23;8.60;;;7.90;;
8488;SDS011;4281;45.772;12.852;2023-05-20T08:06:53;8.80;;;8.00;;
8488;SDS011;4281;45.772;12.852;2023-05-20T08:09:21;8.83;;;8.13;;
8488;SDS011;4281;45.772;12.852;2023-05-20T08:11:49;9.13;;;8.30;;
8488;SDS011;4281;45.772;12.852;2023-05-20T08:14:17;9.20;;;8.40;;
8488;SDS011;4281;45.772;12.852;2023-05-20T08:16:45;9.20;;;8.43;;
8488;SDS011;4281;45.772;12.852;2023-05-20T08:19:15;8.87;;;8.13;;
8488;SDS011;4281;45.772;12.852;2023-05-20T08:21:43;9.87;;;8.97;;
8488;SDS011;4281;45.772;12.852;2023-05-20T08:24:10;10.23;;;9.23;;
8488;SDS011;4281;45.772;12.852;2023-05-20T08:26:38;9.20;;;8.50;;
8488;SDS011;4281;45.772;12.852;2023-05-20T08:29:06;11.10;;;10.00;;
8488;SDS011;4281;45.772;12.852;2023-05-20T08:31:34;10.40;;;9.60;;
8488;SDS011;4281;45.772;12.852;2023-05-20T08:34:02;9.67;;;8.87;;
8488;SDS011;4281;45.772;12.852;2023-05-20T08:36:32;10.87;;;9.93;;
8488;SDS011;4281;45.772;12.852;2023-05-20T08:39:00;10.60;;;9.80;;
8488;SDS011;4281;45.772;12.852;2023-05-20T08:41:28;11.27;;;10.17;;
8488;SDS011;4281;45.772;12.852;2023-05-20T08:43:56;11.00;;;10.13;;
8488;SDS011;4281;45.772;12.852;2023-05-20T08:46:25;11.50;;;10.40;;
8488;SDS011;4281;45.772;12.852;2023-05-20T08:48:53;11.70;;;10.70;;
8488;SDS011;4281;45.772;12.852;2023-05-20T08:51:21;11.13;;;10.33;;
8488;SDS011;4281;45.772;12.852;2023-05-20T08:53:52;11.50;;;10.53;;
8488;SDS011;4281;45.772;12.852;2023-05-20T08:56:20;12.17;;;11.03;;
8488;SDS011;4281;45.772;12.852;2023-05-20T08:58:56;10.77;;;9.87;;
8488;SDS011;4281;45.772;12.852;2023-05-20T09:01:24;10.70;;;9.80;;
8488;SDS011;4281;45.772;12.852;2023-05-20T09:03:52;11.80;;;10.87;;
8488;SDS011;4281;45.772;12.852;2023-05-20T09:06:20;10.87;;;9.97;;
8488;SDS011;4281;45.772;12.852;2023-05-20T09:08:49;11.00;;;10.00;;
8488;SDS011;4281;45.772;12.852;2023-05-20T09:11:19;11.40;;;10.50;;
8488;SDS011;4281;45.772;12.852;2023-05-20T09:13:48;11.87;;;10.77;;
8488;SDS011;4281;45.772;12.852;2023-05-20T09:16:16;11.57;;;10.57;;
8488;SDS011;4281;45.772;12.852;2023-05-20T09:18:45;12.20;;;11.20;;
8488;SDS011;4281;45.772;12.852;2023-05-20T09:21:13;11.00;;;10.10;;
8488;SDS011;4281;45.772;12.852;2023-05-20T09:23:45;11.47;;;10.50;;
8488;SDS011;4281;45.772;12.852;2023-05-20T09:26:13;10.47;;;9.67;;
8488;SDS011;4281;45.772;12.852;2023-05-20T09:28:43;10.93;;;10.03;;
8488;SDS011;4281;45.772;12.852;2023-05-20T09:31:12;10.73;;;9.93;;
8488;SDS011;4281;45.772;12.852;2023-05-20T09:33:40;11.37;;;10.37;;
8488;SDS011;4281;45.772;12.852;2023-05-20T09:36:08;11.20;;;10.30;;
8488;SDS011;4281;45.772;12.852;2023-05-20T09:38:37;11.13;;;10.23;;
8488;SDS011;4281;45.772;12.852;2023-05-20T09:41:06;10.60;;;9.80;;
8488;SDS011;4281;45.772;12.852;2023-05-20T09:43:37;10.17;;;9.30;;
8488;SDS011;4281;45.772;12.852;2023-05-20T09:46:06;9.77;;;8.97;;
8488;SDS011;4281;45.772;12.852;2023-05-20T09:48:35;9.80;;;9.00;;
8488;SDS011;4281;45.772;12.852;2023-05-20T09:51:03;8.20;;;7.50;;
8488;SDS011;4281;45.772;12.852;2023-05-20T09:53:32;9.50;;;8.60;;
8488;SDS011;4281;45.772;12.852;2023-05-20T09:56:00;8.80;;;8.10;;
8488;SDS011;4281;45.772;12.852;2023-05-20T09:58:28;8.53;;;7.83;;
8488;SDS011;4281;45.772;12.852;2023-05-20T10:00:56;9.23;;;8.43;;
8488;SDS011;4281;45.772;12.852;2023-05-20T10:03:26;8.83;;;8.13;;
8488;SDS011;4281;45.772;12.852;2023-05-20T10:06:01;8.27;;;7.67;;
8488;SDS011;4281;45.772;12.852;2023-05-20T10:08:45;8.97;;;8.10;;
8488;SDS011;4281;45.772;12.852;2023-05-20T10:11:32;7.90;;;7.30;;
8488;SDS011;4281;45.772;12.852;2023-05-20T10:14:11;7.97;;;7.27;;
8488;SDS011;4281;45.772;12.852;2023-05-20T10:16:48;8.47;;;7.67;;
8488;SDS011;4281;45.772;12.852;2023-05-20T10:19:22;7.90;;;7.20;;
8488;SDS011;4281;45.772;12.852;2023-05-20T10:21:59;7.87;;;7.20;;
8488;SDS011;4281;45.772;12.852;2023-05-20T10:24:28;8.00;;;7.30;;
8488;SDS011;4281;45.772;12.852;2023-05-20T10:26:57;7.83;;;7.23;;
8488;SDS011;4281;45.772;12.852;2023-05-20T10:29:26;8.67;;;7.87;;
8488;SDS011;4281;45.772;12.852;2023-05-20T10:31:54;7.37;;;6.77;;
8488;SDS011;4281;45.772;12.852;2023-05-20T10:34:24;7.83;;;7.03;;
8488;SDS011;4281;45.772;12.852;2023-05-20T10:36:57;8.13;;;6.90;;
8488;SDS011;4281;45.772;12.852;2023-05-20T10:39:26;7.67;;;7.07;;
8488;SDS011;4281;45.772;12.852;2023-05-20T10:42:04;7.83;;;7.23;;
8488;SDS011;4281;45.772;12.852;2023-05-20T10:44:39;7.17;;;6.50;;
8488;SDS011;4281;45.772;12.852;2023-05-20T10:47:08;7.53;;;6.93;;
8488;SDS011;4281;45.772;12.852;2023-05-20T10:49:42;7.70;;;7.00;;
8488;SDS011;4281;45.772;12.852;2023-05-20T10:52:11;8.20;;;6.70;;
8488;SDS011;4281;45.772;12.852;2023-05-20T10:54:42;7.43;;;6.73;;
8488;SDS011;4281;45.772;12.852;2023-05-20T10:57:13;7.53;;;6.93;;
8488;SDS011;4281;45.772;12.852;2023-05-20T10:59:41;7.57;;;6.97;;
8488;SDS011;4281;45.772;12.852;2023-05-20T11:02:09;7.20;;;6.60;;
8488;SDS011;4281;45.772;12.852;2023-05-20T11:04:38;7.67;;;6.97;;
8488;SDS011;4281;45.772;12.852;2023-05-20T11:07:10;7.40;;;6.70;;
8488;SDS011;4281;45.772;12.852;2023-05-20T11:09:39;8.07;;;7.37;;
8488;SDS011;4281;45.772;12.852;2023-05-20T11:12:16;7.50;;;6.83;;
8488;SDS011;4281;45.772;12.852;2023-05-20T11:14:44;8.97;;;7.77;;
8488;SDS011;4281;45.772;12.852;2023-05-20T11:17:14;7.33;;;6.63;;
8488;SDS011;4281;45.772;12.852;2023-05-20T11:19:43;7.43;;;6.83;;
8488;SDS011;4281;45.772;12.852;2023-05-20T11:22:13;6.67;;;6.17;;
8488;SDS011;4281;45.772;12.852;2023-05-20T11:24:41;7.23;;;6.63;;
8488;SDS011;4281;45.772;12.852;2023-05-20T11:27:08;7.60;;;6.90;;
8488;SDS011;4281;45.772;12.852;2023-05-20T11:29:36;6.87;;;6.27;;
8488;SDS011;4281;45.772;12.852;2023-05-20T11:32:06;7.17;;;6.57;;
8488;SDS011;4281;45.772;12.852;2023-05-20T11:34:34;7.23;;;6.63;;
8488;SDS011;4281;45.772;12.852;2023-05-20T11:37:07;8.10;;;7.30;;
8488;SDS011;4281;45.772;12.852;2023-05-20T11:39:35;7.47;;;6.77;;
8488;SDS011;4281;45.772;12.852;2023-05-20T11:42:04;7.13;;;6.53;;
8488;SDS011;4281;45.772;12.852;2023-05-20T11:44:32;7.10;;;6.50;;
8488;SDS011;4281;45.772;12.852;2023-05-20T11:47:00;7.07;;;6.47;;
8488;SDS011;4281;45.772;12.852;2023-05-20T11:49:29;6.67;;;6.07;;
8488;SDS011;4281;45.772;12.852;2023-05-20T11:51:57;6.90;;;6.20;;
8488;SDS011;4281;45.772;12.852;2023-05-20T11:54:26;7.43;;;6.73;;
8488;SDS011;4281;45.772;12.852;2023-05-20T11:56:54;7.33;;;6.53;;
8488;SDS011;4281;45.772;12.852;2023-05-20T11:59:23;7.10;;;6.40;;
8488;SDS011;4281;45.772;12.852;2023-05-20T12:01:51;7.17;;;6.53;;
8488;SDS011;4281;45.772;12.852;2023-05-20T12:04:19;6.87;;;6.37;;
8488;SDS011;4281;45.772;12.852;2023-05-20T12:06:47;7.47;;;6.87;;
8488;SDS011;4281;45.772;12.852;2023-05-20T12:09:15;7.40;;;6.80;;
8488;SDS011;4281;45.772;12.852;2023-05-20T12:11:44;7.23;;;6.60;;
8488;SDS011;4281;45.772;12.852;2023-05-20T12:14:12;7.33;;;6.57;;
8488;SDS011;4281;45.772;12.852;2023-05-20T12:16:40;7.60;;;6.77;;
8488;SDS011;4281;45.772;12.852;2023-05-20T12:19:08;7.50;;;6.80;;
8488;SDS011;4281;45.772;12.852;2023-05-20T12:21:36;7.07;;;6.47;;
8488;SDS011;4281;45.772;12.852;2023-05-20T12:24:04;7.27;;;6.67;;
8488;SDS011;4281;45.772;12.852;2023-05-20T12:26:33;7.47;;;6.80;;
8488;SDS011;4281;45.772;12.852;2023-05-20T12:29:03;8.33;;;7.33;;
8488;SDS011;4281;45.772;12.852;2023-05-20T12:31:32;7.27;;;6.67;;
8488;SDS011;4281;45.772;12.852;2023-05-20T12:34:00;7.10;;;6.50;;
8488;SDS011;4281;45.772;12.852;2023-05-20T12:36:28;7.00;;;6.40;;
8488;SDS011;4281;45.772;12.852;2023-05-20T12:38:56;7.00;;;6.17;;
8488;SDS011;4281;45.772;12.852;2023-05-20T12:41:24;7.50;;;6.70;;
8488;SDS011;4281;45.772;12.852;2023-05-20T12:43:52;7.30;;;6.70;;
8488;SDS011;4281;45.772;12.852;2023-05-20T12:46:22;6.73;;;6.07;;
8488;SDS011;4281;45.772;12.852;2023-05-20T12:48:50;8.10;;;6.77;;
8488;SDS011;4281;45.772;12.852;2023-05-20T12:51:18;6.80;;;6.20;;
8488;SDS011;4281;45.772;12.852;2023-05-20T12:53:46;6.60;;;6.10;;
8488;SDS011;4281;45.772;12.852;2023-05-20T12:56:14;6.73;;;6.13;;
8488;SDS011;4281;45.772;12.852;2023-05-20T12:58:42;6.90;;;6.30;;
8488;SDS011;4281;45.772;12.852;2023-05-20T13:01:10;7.07;;;6.27;;
8488;SDS011;4281;45.772;12.852;2023-05-20T13:03:39;7.13;;;6.53;;
8488;SDS011;4281;45.772;12.852;2023-05-20T13:06:07;7.10;;;6.50;;
8488;SDS011;4281;45.772;12.852;2023-05-20T13:08:35;6.60;;;6.00;;
8488;SDS011;4281;45.772;12.852;2023-05-20T13:11:03;6.87;;;6.27;;
8488;SDS011;4281;45.772;12.852;2023-05-20T13:13:31;6.23;;;5.73;;
8488;SDS011;4281;45.772;12.852;2023-05-20T13:15:59;6.43;;;5.80;;
8488;SDS011;4281;45.772;12.852;2023-05-20T13:18:27;6.90;;;6.30;;
8488;SDS011;4281;45.772;12.852;2023-05-20T13:20:56;7.07;;;6.37;;
8488;SDS011;4281;45.772;12.852;2023-05-20T13:23:24;6.80;;;6.10;;
8488;SDS011;4281;45.772;12.852;2023-05-20T13:25:52;7.00;;;6.30;;
8488;SDS011;4281;45.772;12.852;2023-05-20T13:28:20;6.40;;;5.90;;
8488;SDS011;4281;45.772;12.852;2023-05-20T13:30:48;6.27;;;5.73;;
8488;SDS011;4281;45.772;12.852;2023-05-20T13:33:16;6.83;;;6.23;;
8488;SDS011;4281;45.772;12.852;2023-05-20T13:35:44;6.90;;;6.30;;
8488;SDS011;4281;45.772;12.852;2023-05-20T13:38:14;6.80;;;6.20;;
8488;SDS011;4281;45.772;12.852;2023-05-20T13:40:42;7.40;;;6.30;;
8488;SDS011;4281;45.772;12.852;2023-05-20T13:43:10;6.83;;;6.33;;
8488;SDS011;4281;45.772;12.852;2023-05-20T13:45:38;7.60;;;7.00;;
8488;SDS011;4281;45.772;12.852;2023-05-20T13:48:06;6.70;;;6.17;;
8488;SDS011;4281;45.772;12.852;2023-05-20T13:50:33;6.87;;;6.27;;
8488;SDS011;4281;45.772;12.852;2023-05-20T13:53:02;7.00;;;6.17;;
8488;SDS011;4281;45.772;12.852;2023-05-20T13:55:31;6.83;;;6.27;;
8488;SDS011;4281;45.772;12.852;2023-05-20T13:57:59;6.73;;;6.13;;
8488;SDS011;4281;45.772;12.852;2023-05-20T14:00:27;7.00;;;6.40;;
8488;SDS011;4281;45.772;12.852;2023-05-20T14:02:55;6.77;;;6.07;;
8488;SDS011;4281;45.772;12.852;2023-05-20T14:05:23;7.33;;;6.63;;
8488;SDS011;4281;45.772;12.852;2023-05-20T14:07:50;6.80;;;6.20;;
8488;SDS011;4281;45.772;12.852;2023-05-20T14:10:18;7.20;;;6.60;;
8488;SDS011;4281;45.772;12.852;2023-05-20T14:12:48;6.93;;;6.33;;
8488;SDS011;4281;45.772;12.852;2023-05-20T14:15:16;7.10;;;6.50;;
8488;SDS011;4281;45.772;12.852;2023-05-20T14:17:44;7.23;;;6.60;;
8488;SDS011;4281;45.772;12.852;2023-05-20T14:20:12;6.83;;;6.13;;
8488;SDS011;4281;45.772;12.852;2023-05-20T14:22:39;6.50;;;6.00;;
8488;SDS011;4281;45.772;12.852;2023-05-20T14:25:08;6.67;;;6.10;;
8488;SDS011;4281;45.772;12.852;2023-05-20T14:27:36;6.87;;;6.27;;
8488;SDS011;4281;45.772;12.852;2023-05-20T14:30:06;6.57;;;6.07;;
8488;SDS011;4281;45.772;12.852;2023-05-20T14:32:34;7.27;;;6.67;;
8488;SDS011;4281;45.772;12.852;2023-05-20T14:35:03;6.60;;;6.00;;
8488;SDS011;4281;45.772;12.852;2023-05-20T14:37:31;7.10;;;6.50;;
8488;SDS011;4281;45.772;12.852;2023-05-20T14:39:59;7.50;;;6.90;;
8488;SDS011;4281;45.772;12.852;2023-05-20T14:42:27;7.97;;;7.17;;
8488;SDS011;4281;45.772;12.852;2023-05-20T14:44:55;7.73;;;7.13;;
8488;SDS011;4281;45.772;12.852;2023-05-20T14:47:24;8.07;;;7.47;;
8488;SDS011;4281;45.772;12.852;2023-05-20T14:49:52;7.43;;;6.73;;
8488;SDS011;4281;45.772;12.852;2023-05-20T14:52:21;7.70;;;7.10;;
8488;SDS011;4281;45.772;12.852;2023-05-20T14:54:49;8.20;;;7.40;;
8488;SDS011;4281;45.772;12.852;2023-05-20T14:57:16;7.80;;;7.10;;
8488;SDS011;4281;45.772;12.852;2023-05-20T14:59:46;7.60;;;7.00;;
8488;SDS011;4281;45.772;12.852;2023-05-20T15:02:16;8.03;;;7.37;;
8488;SDS011;4281;45.772;12.852;2023-05-20T15:04:46;7.83;;;7.23;;
8488;SDS011;4281;45.772;12.852;2023-05-20T15:07:14;9.10;;;8.30;;
8488;SDS011;4281;45.772;12.852;2023-05-20T15:09:41;9.03;;;8.27;;